Terminal Aerodrome Forecast
Issued by NWS Charleston, WV

Home | Current Version | Previous Version | Text Only | Print | Product List | Glossary On
Versions: 1 2 3 4 5 6 7 8 9 10 11 12 13 14 15 16 17 18 19 20 21 22 23 24
195
FTUS41 KRLX 181123
TAFHTS
TAF
KHTS 181123Z 1812/1912 21003KT 6SM -DZ OVC012
      TEMPO 1812/1816 2SM -DZ OVC007
     FM182100 23006KT P6SM -DZ OVC015
     FM190200 23006KT P6SM -DZ OVC020
     FM190500 23006KT P6SM BKN020
     FM190800 23005KT P6SM BKN015=

USA.gov is the U.S. government's official web portal to all federal, state and local government web resources and services.